Time;durP1;ratioP1;P1;durP2;ratioP2;P2;SDS_P1;SDS_P2;PMS_P1;PMS_P2;Temp;Humidity;BMP_temperature;BMP_pressure;BME280_temperature;BME280_humidity;BME280_pressure;Samples;Min_cycle;Max_cycle;Signal;HPM_P1;HPM_P2
2023/07/28 00:01:42;;;;;;;18.08;10.13;;;18.50;99.90;;;;;;5054946;28;20064;-65
2023/07/28 00:04:09;;;;;;;20.38;11.60;;;18.50;99.90;;;;;;5054820;28;20048;-65
2023/07/28 00:06:35;;;;;;;21.08;10.63;;;18.50;99.90;;;;;;5036969;28;20478;-65
2023/07/28 00:09:00;;;;;;;21.70;10.90;;;18.50;99.90;;;;;;5054759;28;20043;-66
2023/07/28 00:11:26;;;;;;;19.90;11.27;;;18.50;99.90;;;;;;5036917;28;20565;-65
2023/07/28 00:13:52;;;;;;;17.63;11.05;;;18.50;99.90;;;;;;5054522;28;20103;-66
2023/07/28 00:16:17;;;;;;;15.82;10.38;;;18.50;99.90;;;;;;5036650;28;20127;-65
2023/07/28 00:18:43;;;;;;;17.50;10.82;;;18.50;99.90;;;;;;5054136;28;20057;-66
2023/07/28 00:21:09;;;;;;;17.05;8.82;;;18.50;99.90;;;;;;5054536;28;20114;-67
2023/07/28 00:23:34;;;;;;;12.40;9.48;;;18.50;99.90;;;;;;5036622;28;20127;-65
2023/07/28 00:26:00;;;;;;;14.70;9.48;;;18.50;99.90;;;;;;5054515;28;20037;-65
2023/07/28 00:28:26;;;;;;;12.38;8.88;;;18.50;99.90;;;;;;5054389;28;20045;-65
2023/07/28 00:30:51;;;;;;;17.23;9.95;;;18.50;99.90;;;;;;5054245;28;20454;-65
2023/07/28 00:33:17;;;;;;;13.23;9.18;;;18.50;99.90;;;;;;5054237;28;20362;-66
2023/07/28 00:35:43;;;;;;;11.32;8.95;;;18.50;99.90;;;;;;5054479;28;20053;-65
2023/07/28 00:38:09;;;;;;;15.82;10.05;;;18.50;99.90;;;;;;5054628;28;20049;-65
2023/07/28 00:40:35;;;;;;;16.30;10.40;;;18.50;99.90;;;;;;5054312;28;20156;-66
2023/07/28 00:43:01;;;;;;;15.30;9.23;;;18.50;99.90;;;;;;5054110;28;20072;-66
2023/07/28 00:45:29;;;;;;;18.08;10.65;;;18.50;99.90;;;;;;5054390;28;20142;-65
2023/07/28 00:47:57;;;;;;;16.52;10.52;;;18.50;99.90;;;;;;5053864;28;20128;-66
2023/07/28 00:50:24;;;;;;;17.15;11.32;;;18.40;99.90;;;;;;5053794;28;20448;-66
2023/07/28 00:52:50;;;;;;;18.40;12.02;;;18.50;99.90;;;;;;5053710;28;20103;-66
2023/07/28 00:55:16;;;;;;;15.95;11.43;;;18.40;99.90;;;;;;5036042;28;20041;-66
2023/07/28 00:57:42;;;;;;;22.83;11.43;;;18.40;99.90;;;;;;5053599;28;20427;-66
2023/07/28 01:00:08;;;;;;;19.25;11.40;;;18.50;99.90;;;;;;5036481;28;20053;-66
2023/07/28 01:02:34;;;;;;;16.42;11.13;;;18.40;99.90;;;;;;5036177;28;20102;-66
2023/07/28 01:05:00;;;;;;;18.40;12.77;;;18.40;99.90;;;;;;5053576;28;20045;-65
2023/07/28 01:07:26;;;;;;;23.52;12.77;;;18.50;99.90;;;;;;5054110;28;20458;-66
2023/07/28 01:09:54;;;;;;;23.60;13.52;;;18.50;99.90;;;;;;5035745;28;20416;-66
2023/07/28 01:12:20;;;;;;;19.35;12.57;;;18.40;99.90;;;;;;5053650;28;20065;-66
2023/07/28 01:14:45;;;;;;;19.90;11.57;;;18.50;99.90;;;;;;5035926;28;20443;-67
2023/07/28 01:17:11;;;;;;;17.83;12.57;;;18.50;99.90;;;;;;5036025;28;20049;-66
2023/07/28 01:19:37;;;;;;;23.25;15.52;;;18.50;99.90;;;;;;5053438;28;20055;-67
2023/07/28 01:22:37;;;;;;;23.67;15.57;;;18.50;99.90;;;;;;5053265;28;20509;-65
2023/07/28 01:25:08;;;;;;;21.55;12.13;;;18.40;99.90;;;;;;5036020;28;20397;-67
2023/07/28 01:27:37;;;;;;;26.48;15.02;;;18.50;99.90;;;;;;5052544;28;20056;-65
2023/07/28 01:30:03;;;;;;;26.85;16.70;;;18.50;99.90;;;;;;5035678;28;20041;-68
2023/07/28 01:32:29;;;;;;;24.92;17.00;;;18.40;99.90;;;;;;5053257;28;20091;-66
2023/07/28 01:34:55;;;;;;;24.73;15.00;;;18.50;99.90;;;;;;5053032;28;20049;-66
2023/07/28 01:37:20;;;;;;;25.05;15.00;;;18.40;99.90;;;;;;5053018;28;20041;-67
2023/07/28 01:39:46;;;;;;;19.98;13.90;;;18.40;99.90;;;;;;5035157;28;20049;-66
2023/07/28 01:42:12;;;;;;;23.30;14.95;;;18.50;99.90;;;;;;5018956;28;20091;-67
2023/07/28 01:44:37;;;;;;;22.55;15.65;;;18.50;99.90;;;;;;5053484;28;20049;-66
2023/07/28 01:47:03;;;;;;;23.65;15.55;;;18.50;99.90;;;;;;5053320;28;20407;-66
2023/07/28 01:49:29;;;;;;;21.40;14.57;;;18.40;99.90;;;;;;5052773;28;20037;-66
2023/07/28 01:51:55;;;;;;;22.70;15.23;;;18.50;99.90;;;;;;5052870;28;20048;-65
2023/07/28 01:54:20;;;;;;;24.60;16.17;;;18.50;99.90;;;;;;5053355;28;20339;-66
2023/07/28 01:56:46;;;;;;;26.52;18.55;;;18.40;99.90;;;;;;5035143;28;20084;-67
2023/07/28 01:59:13;;;;;;;25.95;15.77;;;18.40;99.90;;;;;;5052618;28;20044;-65
2023/07/28 02:01:39;;;;;;;21.88;16.70;;;18.50;99.90;;;;;;5052657;28;20635;-66
2023/07/28 02:04:05;;;;;;;23.35;17.67;;;18.50;99.90;;;;;;5052892;28;20041;-65
2023/07/28 02:06:31;;;;;;;27.33;17.00;;;18.50;99.90;;;;;;5052624;28;20045;-66
2023/07/28 02:08:57;;;;;;;30.38;18.23;;;18.40;99.90;;;;;;5018984;28;20084;-65
2023/07/28 02:11:23;;;;;;;26.20;16.42;;;18.40;99.90;;;;;;5034944;28;20072;-66
2023/07/28 02:13:48;;;;;;;25.10;17.15;;;18.50;99.90;;;;;;5052343;28;20049;-65
2023/07/28 02:16:14;;;;;;;23.15;15.63;;;18.50;99.90;;;;;;5034868;28;20040;-66
2023/07/28 02:18:40;;;;;;;29.40;16.90;;;18.50;99.90;;;;;;5052107;28;20055;-65
2023/07/28 02:21:08;;;;;;;22.13;16.67;;;18.50;99.90;;;;;;5053111;28;20045;-66
2023/07/28 02:23:34;;;;;;;27.33;17.75;;;18.50;99.90;;;;;;5035132;28;20059;-65
2023/07/28 02:25:59;;;;;;;27.15;16.55;;;18.50;99.90;;;;;;5052840;28;20382;-66
2023/07/28 02:28:25;;;;;;;26.40;16.92;;;18.50;99.90;;;;;;5052176;28;20041;-65
2023/07/28 02:30:51;;;;;;;24.10;17.30;;;18.40;99.90;;;;;;5052927;28;20041;-65
2023/07/28 02:33:16;;;;;;;22.77;15.00;;;18.50;99.90;;;;;;5052161;28;20041;-66
2023/07/28 02:35:42;;;;;;;25.23;16.77;;;18.40;99.90;;;;;;5052589;28;20045;-66
2023/07/28 02:38:08;;;;;;;26.90;15.95;;;18.40;99.90;;;;;;5053109;28;20059;-67
2023/07/28 02:40:34;;;;;;;23.75;14.43;;;18.40;99.90;;;;;;5056126;28;20048;-66
2023/07/28 02:43:00;;;;;;;25.73;14.38;;;18.50;99.90;;;;;;5038620;28;20041;-65
2023/07/28 02:45:25;;;;;;;30.02;16.48;;;18.50;99.90;;;;;;5055928;28;20056;-65
2023/07/28 02:47:51;;;;;;;22.63;15.80;;;18.50;99.90;;;;;;5056298;28;20044;-65
2023/07/28 02:50:17;;;;;;;24.80;14.93;;;18.40;99.90;;;;;;5055847;28;20052;-65
2023/07/28 02:52:42;;;;;;;22.73;15.93;;;18.40;99.90;;;;;;5055841;28;20041;-66
2023/07/28 02:55:08;;;;;;;20.63;14.27;;;18.40;99.90;;;;;;5038143;28;20106;-67
2023/07/28 02:57:34;;;;;;;20.38;13.35;;;18.50;99.90;;;;;;5038593;28;20051;-65
2023/07/28 03:00:00;;;;;;;22.17;15.45;;;18.40;99.90;;;;;;5055573;28;20041;-65
2023/07/28 03:02:25;;;;;;;31.15;14.43;;;18.50;99.90;;;;;;5038940;28;20052;-65
2023/07/28 03:04:51;;;;;;;18.70;14.48;;;18.40;99.90;;;;;;5038153;28;20052;-65
2023/07/28 03:07:17;;;;;;;26.40;15.32;;;18.40;99.90;;;;;;5055835;28;20525;-65
2023/07/28 03:09:43;;;;;;;21.90;13.13;;;18.50;99.90;;;;;;5055718;28;20044;-66
2023/07/28 03:12:08;;;;;;;30.88;16.63;;;18.40;99.90;;;;;;5038812;28;20091;-67
2023/07/28 03:14:34;;;;;;;22.52;14.90;;;18.50;99.90;;;;;;5055921;28;20040;-66
2023/07/28 03:17:00;;;;;;;24.58;14.10;;;18.40;99.90;;;;;;5055649;28;20162;-65
2023/07/28 03:19:26;;;;;;;22.10;12.85;;;18.50;99.90;;;;;;5055312;28;20072;-65
2023/07/28 03:21:51;;;;;;;26.27;14.25;;;18.50;99.90;;;;;;5055561;28;20088;-65
2023/07/28 03:24:17;;;;;;;16.52;10.73;;;18.40;99.90;;;;;;5020983;28;20128;-65
2023/07/28 03:26:43;;;;;;;26.10;13.30;;;18.50;99.90;;;;;;5055420;28;20045;-66
2023/07/28 03:29:09;;;;;;;22.98;13.18;;;18.50;99.90;;;;;;5055943;28;20060;-68
2023/07/28 03:31:35;;;;;;;21.00;10.45;;;18.50;99.90;;;;;;5055462;28;20485;-66
2023/07/28 03:34:02;;;;;;;23.00;13.98;;;18.50;99.90;;;;;;5055957;28;20094;-66
2023/07/28 03:36:28;;;;;;;27.42;13.45;;;18.50;99.90;;;;;;5020778;28;20136;-67
2023/07/28 03:38:54;;;;;;;21.23;12.10;;;18.50;99.90;;;;;;5055192;28;20116;-66
2023/07/28 03:41:20;;;;;;;19.10;12.43;;;18.50;99.90;;;;;;5055564;28;20132;-66
2023/07/28 03:43:46;;;;;;;19.27;12.57;;;18.60;99.90;;;;;;5055744;28;20073;-65
2023/07/28 03:46:12;;;;;;;16.75;11.57;;;18.50;99.90;;;;;;5037619;28;20488;-66
2023/07/28 03:48:37;;;;;;;23.20;13.20;;;18.50;99.90;;;;;;5055651;28;20122;-66
2023/07/28 03:51:03;;;;;;;20.35;11.60;;;18.40;99.90;;;;;;5054729;28;20441;-66
2023/07/28 03:53:29;;;;;;;18.63;11.20;;;18.50;99.90;;;;;;5021475;28;20092;-66
2023/07/28 03:55:57;;;;;;;24.02;12.65;;;18.50;99.90;;;;;;5055093;28;20040;-66
2023/07/28 03:58:24;;;;;;;17.70;10.88;;;18.50;99.90;;;;;;5054818;28;20049;-66
2023/07/28 04:00:52;;;;;;;22.75;11.25;;;18.50;99.90;;;;;;5054618;28;20134;-67
2023/07/28 04:03:18;;;;;;;13.63;9.60;;;18.40;99.90;;;;;;5054720;28;20053;-66
2023/07/28 04:05:43;;;;;;;20.90;11.27;;;18.30;99.90;;;;;;5055145;28;20492;-67
2023/07/28 04:08:09;;;;;;;19.27;11.82;;;18.40;99.90;;;;;;5054738;28;20051;-66
2023/07/28 04:10:35;;;;;;;14.32;11.43;;;18.50;99.90;;;;;;5020553;28;20114;-67
2023/07/28 04:13:00;;;;;;;20.00;11.10;;;18.50;99.90;;;;;;5054561;28;20045;-66
2023/07/28 04:15:26;;;;;;;20.30;11.10;;;18.50;99.90;;;;;;5054503;28;20077;-67
2023/07/28 04:17:52;;;;;;;18.80;12.02;;;18.50;99.90;;;;;;5036795;28;20449;-65
2023/07/28 04:20:17;;;;;;;20.73;11.50;;;18.40;99.90;;;;;;5053838;28;20057;-66
2023/07/28 04:22:43;;;;;;;14.70;9.93;;;18.40;99.90;;;;;;5054830;28;20060;-66
2023/07/28 04:25:09;;;;;;;18.25;11.10;;;18.40;99.90;;;;;;5054246;28;20068;-65
2023/07/28 04:27:34;;;;;;;26.08;10.73;;;18.50;99.90;;;;;;5054403;28;20045;-65
2023/07/28 04:30:00;;;;;;;16.63;9.65;;;18.40;99.90;;;;;;5036976;28;20044;-66
2023/07/28 04:32:26;;;;;;;20.00;11.00;;;18.40;99.90;;;;;;5036581;28;20453;-66
2023/07/28 04:34:53;;;;;;;16.77;10.77;;;18.50;99.90;;;;;;5054178;28;20045;-65
2023/07/28 04:37:19;;;;;;;15.38;9.38;;;18.50;99.90;;;;;;5054259;28;20049;-65
2023/07/28 04:39:45;;;;;;;16.15;10.23;;;18.50;99.90;;;;;;5036336;28;20102;-65
2023/07/28 04:42:10;;;;;;;15.23;9.38;;;18.40;99.90;;;;;;5054077;28;20589;-67
2023/07/28 04:44:39;;;;;;;18.67;10.45;;;18.50;99.90;;;;;;5053936;28;20052;-65
2023/07/28 04:47:05;;;;;;;14.02;9.77;;;18.50;99.90;;;;;;5054047;28;20068;-66
2023/07/28 04:49:31;;;;;;;17.25;10.52;;;18.50;99.90;;;;;;5020227;28;20422;-66
2023/07/28 04:51:56;;;;;;;14.38;9.38;;;18.50;99.90;;;;;;5054076;28;20095;-66
2023/07/28 04:54:22;;;;;;;24.13;10.55;;;18.50;99.90;;;;;;5053986;28;20127;-66
2023/07/28 04:56:49;;;;;;;21.83;10.23;;;18.60;99.90;;;;;;5053717;28;20551;-66
2023/07/28 04:59:15;;;;;;;18.90;9.90;;;18.60;99.90;;;;;;5053860;28;20088;-66
2023/07/28 05:01:41;;;;;;;15.13;9.27;;;18.60;99.90;;;;;;5052736;28;20048;-66
2023/07/28 05:04:07;;;;;;;14.63;9.82;;;18.60;99.90;;;;;;5036000;28;20072;-66
2023/07/28 05:06:32;;;;;;;17.75;10.20;;;18.70;99.90;;;;;;5053460;28;20037;-67
2023/07/28 05:08:58;;;;;;;14.35;10.77;;;18.70;99.90;;;;;;5053391;28;20041;-68
2023/07/28 05:11:24;;;;;;;18.02;9.48;;;18.70;99.90;;;;;;5054173;28;20046;-65
2023/07/28 05:13:49;;;;;;;13.77;9.82;;;18.60;99.90;;;;;;5053532;28;20450;-67
2023/07/28 05:16:15;;;;;;;16.35;9.40;;;18.70;99.90;;;;;;5053241;28;20520;-65
2023/07/28 05:18:42;;;;;;;15.68;9.93;;;18.70;99.90;;;;;;5053194;28;20049;-67
2023/07/28 05:21:08;;;;;;;14.23;9.65;;;18.70;99.90;;;;;;5035355;28;20087;-66
2023/07/28 05:23:34;;;;;;;14.27;9.85;;;18.70;99.90;;;;;;5052762;28;20462;-66
2023/07/28 05:26:00;;;;;;;16.10;11.10;;;18.70;99.90;;;;;;5053615;28;20056;-66
2023/07/28 05:28:25;;;;;;;17.65;10.13;;;18.70;99.90;;;;;;5053110;28;20128;-67
2023/07/28 05:30:51;;;;;;;17.40;9.52;;;18.70;99.90;;;;;;5053322;28;20037;-66
2023/07/28 05:33:16;;;;;;;13.95;9.80;;;18.70;99.90;;;;;;5053585;28;20049;-66
2023/07/28 05:35:42;;;;;;;18.33;11.32;;;18.70;99.90;;;;;;5052959;28;20515;-66
2023/07/28 05:38:08;;;;;;;13.07;9.10;;;18.70;99.90;;;;;;5053198;28;20452;-66
2023/07/28 05:40:34;;;;;;;13.75;10.07;;;18.80;99.90;;;;;;5053150;28;20052;-65
2023/07/28 05:42:59;;;;;;;11.93;8.88;;;18.90;99.90;;;;;;5052762;28;20579;-66
2023/07/28 05:45:25;;;;;;;14.77;9.60;;;18.90;99.90;;;;;;5052813;28;20040;-65
2023/07/28 05:47:50;;;;;;;14.32;10.52;;;18.80;99.90;;;;;;5052798;28;20049;-67
2023/07/28 05:50:16;;;;;;;17.80;11.60;;;18.90;99.90;;;;;;5052720;28;20041;-66
2023/07/28 05:52:42;;;;;;;15.75;9.30;;;18.80;99.90;;;;;;5052659;28;20505;-66
2023/07/28 05:55:08;;;;;;;16.70;9.90;;;18.80;99.90;;;;;;5052607;28;20106;-66
2023/07/28 05:57:34;;;;;;;15.13;9.25;;;18.80;99.90;;;;;;5034964;28;20053;-66
2023/07/28 05:59:59;;;;;;;14.55;9.35;;;18.90;99.90;;;;;;5052526;28;20044;-66
2023/07/28 06:02:25;;;;;;;14.23;9.65;;;18.90;99.90;;;;;;5052885;28;20049;-66
2023/07/28 06:04:52;;;;;;;16.48;8.85;;;19.10;99.90;;;;;;5052837;28;20444;-66
2023/07/28 06:07:17;;;;;;;12.25;7.72;;;19.20;99.90;;;;;;5053221;28;20128;-66
2023/07/28 06:09:43;;;;;;;9.35;6.95;;;19.30;99.90;;;;;;5052476;28;20080;-66
2023/07/28 06:12:09;;;;;;;13.88;8.32;;;19.30;99.90;;;;;;5053068;28;20049;-65
2023/07/28 06:14:35;;;;;;;9.80;7.15;;;19.30;99.90;;;;;;5052139;28;20401;-65
2023/07/28 06:17:00;;;;;;;11.85;7.18;;;19.30;99.90;;;;;;5052387;28;20176;-67
2023/07/28 06:19:26;;;;;;;7.78;6.68;;;19.30;99.90;;;;;;5052034;28;20143;-66
2023/07/28 06:21:52;;;;;;;11.73;7.05;;;19.30;99.90;;;;;;5034677;28;20049;-65
2023/07/28 06:24:18;;;;;;;7.53;5.50;;;19.40;99.90;;;;;;5052372;28;20060;-66
2023/07/28 06:26:44;;;;;;;9.35;7.22;;;19.40;99.90;;;;;;5052646;28;20055;-65
2023/07/28 06:29:10;;;;;;;10.60;6.53;;;19.40;99.90;;;;;;5051925;28;20116;-65
2023/07/28 06:31:35;;;;;;;9.32;5.70;;;19.50;99.90;;;;;;5052656;28;20458;-65
2023/07/28 06:34:01;;;;;;;8.52;6.38;;;19.50;99.90;;;;;;5052549;28;20466;-66
2023/07/28 06:36:27;;;;;;;10.20;6.28;;;19.50;99.90;;;;;;5052551;28;20121;-67
2023/07/28 06:38:55;;;;;;;9.20;6.55;;;19.50;99.90;;;;;;5034397;28;20128;-66
2023/07/28 06:41:21;;;;;;;9.48;6.28;;;19.50;99.90;;;;;;5052028;28;20049;-66
2023/07/28 06:43:48;;;;;;;7.47;6.03;;;19.50;99.90;;;;;;5051991;28;20049;-65
2023/07/28 06:46:14;;;;;;;10.68;6.47;;;19.60;99.90;;;;;;5051989;28;20076;-66
2023/07/28 06:48:40;;;;;;;8.98;6.47;;;20.00;99.90;;;;;;5034219;28;20459;-66
2023/07/28 06:51:06;;;;;;;10.45;5.93;;;19.80;99.90;;;;;;5051855;28;20049;-66
2023/07/28 06:53:34;;;;;;;11.18;5.68;;;20.20;99.90;;;;;;5051931;28;20049;-67
2023/07/28 06:56:00;;;;;;;10.38;5.90;;;20.20;99.90;;;;;;5052030;28;20064;-66
2023/07/28 06:58:25;;;;;;;9.18;6.47;;;20.20;99.90;;;;;;5051827;28;20537;-66
2023/07/28 07:00:51;;;;;;;8.73;6.15;;;20.20;99.90;;;;;;5051713;28;20049;-66
2023/07/28 07:03:17;;;;;;;6.25;5.63;;;20.20;99.90;;;;;;5034378;28;20103;-67
2023/07/28 07:05:43;;;;;;;8.65;6.28;;;20.20;99.90;;;;;;5051438;28;20423;-67
2023/07/28 07:08:09;;;;;;;6.63;5.93;;;20.20;99.90;;;;;;5051925;28;20112;-66
2023/07/28 07:10:35;;;;;;;9.13;6.35;;;20.20;99.90;;;;;;5051565;28;20466;-67
2023/07/28 07:13:00;;;;;;;8.95;6.15;;;20.20;99.90;;;;;;5001332;28;20045;-67
2023/07/28 07:15:26;;;;;;;7.57;5.80;;;20.10;99.90;;;;;;5051637;28;20045;-67
2023/07/28 07:17:52;;;;;;;5.90;5.32;;;20.10;99.90;;;;;;5051584;28;20531;-66
2023/07/28 07:20:17;;;;;;;6.15;5.50;;;20.20;99.90;;;;;;5051377;28;20136;-66
2023/07/28 07:22:43;;;;;;;5.88;5.18;;;20.20;99.90;;;;;;5033861;28;20363;-67
2023/07/28 07:25:09;;;;;;;6.57;5.25;;;20.20;99.90;;;;;;5052162;28;20059;-66
2023/07/28 07:27:35;;;;;;;5.78;4.80;;;20.50;99.90;;;;;;5037693;28;20045;-66
2023/07/28 07:30:00;;;;;;;6.35;5.45;;;20.60;99.90;;;;;;5055189;28;20059;-66
2023/07/28 07:32:26;;;;;;;4.43;4.03;;;20.80;99.90;;;;;;5055437;28;20055;-67
2023/07/28 07:34:53;;;;;;;4.65;4.22;;;20.90;99.90;;;;;;5055092;28;20080;-67
2023/07/28 07:37:19;;;;;;;4.22;3.83;;;21.00;99.90;;;;;;5037172;28;20061;-66
2023/07/28 07:39:44;;;;;;;4.57;4.28;;;21.20;99.90;;;;;;5054960;28;20045;-68
2023/07/28 07:42:13;;;;;;;4.78;4.18;;;21.40;99.90;;;;;;5055416;28;20124;-66
2023/07/28 07:44:39;;;;;;;4.45;4.05;;;21.60;99.90;;;;;;5054631;28;20454;-66
2023/07/28 07:47:14;;;;;;;3.83;3.53;;;21.80;99.90;;;;;;5054660;28;20530;-67
2023/07/28 07:49:40;;;;;;;7.07;3.70;;;21.80;99.90;;;;;;5054551;28;20577;-68
2023/07/28 07:52:07;;;;;;;3.47;3.17;;;21.90;99.90;;;;;;5054832;28;20080;-67
2023/07/28 07:54:33;;;;;;;4.50;4.10;;;22.00;99.90;;;;;;5054700;28;20080;-65
2023/07/28 07:56:59;;;;;;;3.72;3.42;;;22.40;99.90;;;;;;5054733;28;20503;-68
2023/07/28 07:59:27;;;;;;;4.00;3.60;;;22.80;99.90;;;;;;5036880;28;20040;-67
2023/07/28 08:01:54;;;;;;;5.30;3.38;;;22.60;99.90;;;;;;5054657;28;20057;-68
2023/07/28 08:04:19;;;;;;;4.13;3.08;;;22.30;99.90;;;;;;5054599;28;20063;-67
2023/07/28 08:06:45;;;;;;;4.35;4.05;;;22.20;99.90;;;;;;5054529;28;20518;-67
2023/07/28 08:09:10;;;;;;;4.93;3.15;;;22.00;99.90;;;;;;5054518;28;20041;-68
2023/07/28 08:11:36;;;;;;;4.95;3.58;;;21.90;99.90;;;;;;5036758;28;20128;-67
2023/07/28 08:14:02;;;;;;;3.53;3.22;;;21.80;99.90;;;;;;5037474;28;20053;-68
2023/07/28 08:16:28;;;;;;;3.83;3.25;;;21.60;99.90;;;;;;5036665;28;20136;-66
2023/07/28 08:18:54;;;;;;;5.88;3.28;;;21.60;99.90;;;;;;5054047;28;20057;-66
2023/07/28 08:21:19;;;;;;;3.50;3.20;;;21.70;99.90;;;;;;5054341;28;20049;-66
2023/07/28 08:23:45;;;;;;;3.13;2.83;;;21.80;99.90;;;;;;5036489;28;20076;-66
2023/07/28 08:26:11;;;;;;;4.13;3.17;;;22.00;99.90;;;;;;5054244;28;20482;-68
2023/07/28 08:28:36;;;;;;;3.90;3.60;;;22.30;99.90;;;;;;5054021;28;20045;-68
2023/07/28 08:31:03;;;;;;;4.65;3.40;;;22.30;99.90;;;;;;5037325;28;20075;-68
2023/07/28 08:33:29;;;;;;;5.18;3.42;;;22.40;99.90;;;;;;5053904;28;20530;-69
2023/07/28 08:35:55;;;;;;;5.18;3.65;;;22.30;99.90;;;;;;5054055;28;20041;-67
2023/07/28 08:38:21;;;;;;;3.08;2.78;;;23.20;99.90;;;;;;5036561;28;20045;-67
2023/07/28 08:40:46;;;;;;;5.32;2.80;;;24.60;99.90;;;;;;5054070;28;20491;-67
2023/07/28 08:43:12;;;;;;;5.00;3.10;;;25.90;99.90;;;;;;5054067;28;20107;-67
2023/07/28 08:45:38;;;;;;;3.63;3.00;;;26.10;99.90;;;;;;5054149;28;20528;-68
2023/07/28 08:48:04;;;;;;;3.28;2.83;;;26.10;99.90;;;;;;5053881;28;20056;-67
2023/07/28 08:50:31;;;;;;;3.75;3.20;;;26.70;99.90;;;;;;5053756;28;20120;-67
2023/07/28 08:52:57;;;;;;;3.95;2.40;;;26.80;99.90;;;;;;5053642;28;20513;-68
2023/07/28 08:55:23;;;;;;;4.72;2.58;;;27.00;99.90;;;;;;5053968;28;20076;-68
2023/07/28 08:57:48;;;;;;;4.75;2.58;;;27.50;99.90;;;;;;5053909;28;20053;-67
2023/07/28 09:00:17;;;;;;;3.03;2.38;;;27.80;99.90;;;;;;5035926;28;20045;-67
2023/07/28 09:02:43;;;;;;;4.30;2.40;;;27.40;99.90;;;;;;5053602;28;20076;-67
2023/07/28 09:05:33;;;;;;;3.55;2.85;;;26.60;99.90;;;;;;5053639;28;20056;-66
2023/07/28 09:07:59;;;;;;;4.05;3.15;;;25.70;99.90;;;;;;5036053;28;20056;-66
2023/07/28 09:10:24;;;;;;;4.38;2.50;;;25.20;99.90;;;;;;5053420;28;20041;-66
2023/07/28 09:12:51;;;;;;;3.22;2.85;;;25.10;99.90;;;;;;5053404;28;20044;-67
2023/07/28 09:15:17;;;;;;;5.80;2.63;;;25.40;99.90;;;;;;5053370;28;20052;-67
2023/07/28 09:17:46;;;;;;;3.35;2.15;;;26.30;99.90;;;;;;5053545;28;20045;-68
2023/07/28 09:20:16;;;;;;;3.88;2.33;;;26.90;99.90;;;;;;5053422;28;20053;-67
2023/07/28 09:22:44;;;;;;;5.22;2.53;;;27.20;99.90;;;;;;5053575;28;20045;-68
2023/07/28 09:25:12;;;;;;;3.70;2.35;;;26.80;99.90;;;;;;5053001;28;20087;-66
2023/07/28 09:27:38;;;;;;;2.10;1.90;;;26.00;99.90;;;;;;5053260;28;20049;-68
2023/07/28 09:30:05;;;;;;;2.50;2.17;;;25.70;99.90;;;;;;5053292;28;20045;-66
2023/07/28 09:32:36;;;;;;;3.55;2.22;;;26.40;99.90;;;;;;5053095;28;20119;-66
2023/07/28 09:35:13;;;;;;;3.97;2.35;;;26.80;99.90;;;;;;5053552;28;20186;-67
2023/07/28 09:37:40;;;;;;;5.03;2.40;;;27.30;99.90;;;;;;5053384;28;20084;-68
2023/07/28 09:40:11;;;;;;;3.92;2.75;;;27.60;99.90;;;;;;5052619;28;20048;-67
2023/07/28 09:42:41;;;;;;;4.50;2.10;;;27.10;99.90;;;;;;5053464;28;20137;-68
2023/07/28 09:45:09;;;;;;;4.95;2.30;;;26.60;99.90;;;;;;5053059;28;20044;-67
2023/07/28 09:47:36;;;;;;;2.45;1.83;;;26.10;99.90;;;;;;5052390;28;20060;-68
2023/07/28 09:50:08;;;;;;;3.70;2.30;;;25.90;99.90;;;;;;5052341;28;20531;-66
2023/07/28 09:52:46;;;;;;;4.35;2.17;;;25.80;99.90;;;;;;5052817;28;20497;-68
2023/07/28 09:55:15;;;;;;;4.05;2.03;;;25.70;99.90;;;;;;5035272;28;20044;-66
2023/07/28 09:57:51;;;;;;;2.08;1.88;;;25.50;99.90;;;;;;5052537;28;20079;-67
2023/07/28 10:00:18;;;;;;;2.28;2.08;;;25.30;99.90;;;;;;5034870;28;20095;-66
2023/07/28 10:02:45;;;;;;;2.35;2.15;;;25.10;99.90;;;;;;5052669;28;20045;-67
2023/07/28 10:05:11;;;;;;;2.83;2.40;;;24.90;99.90;;;;;;5052268;28;20406;-67
2023/07/28 10:07:39;;;;;;;3.75;2.35;;;24.60;99.90;;;;;;5052881;28;20102;-66
2023/07/28 10:10:07;;;;;;;3.88;2.63;;;24.40;99.90;;;;;;5052535;28;20080;-66
2023/07/28 10:12:47;;;;;;;2.63;2.20;;;24.50;99.90;;;;;;5052909;28;20044;-67
2023/07/28 10:15:15;;;;;;;3.63;2.50;;;24.90;99.90;;;;;;5034908;28;20049;-67
2023/07/28 10:17:47;;;;;;;4.38;2.13;;;25.00;99.90;;;;;;5052420;28;20071;-67
2023/07/28 10:20:38;;;;;;;2.70;2.50;;;24.90;99.90;;;;;;5052670;28;20102;-67
2023/07/28 10:23:11;;;;;;;2.95;2.38;;;24.70;99.90;;;;;;5052560;28;20507;-69
2023/07/28 10:25:38;;;;;;;3.60;2.63;;;24.90;99.90;;;;;;5052485;28;20119;-67
2023/07/28 10:28:32;;;;;;;4.20;2.30;;;25.30;99.90;;;;;;5052831;28;20051;-66
2023/07/28 10:30:59;;;;;;;6.22;2.88;;;25.90;99.90;;;;;;5018353;28;20371;-66
2023/07/28 10:33:34;;;;;;;3.40;3.05;;;26.10;99.90;;;;;;5052219;28;20049;-66
2023/07/28 10:36:32;;;;;;;5.20;2.85;;;26.00;99.90;;;;;;5052279;28;20055;-67
2023/07/28 10:39:07;;;;;;;3.10;2.50;;;25.90;99.90;;;;;;5037678;28;20481;-66
2023/07/28 10:41:35;;;;;;;3.22;2.92;;;25.50;99.90;;;;;;5052474;28;20049;-67
2023/07/28 10:44:02;;;;;;;4.78;2.95;;;25.40;99.90;;;;;;5052098;28;20045;-68
2023/07/28 10:46:27;;;;;;;3.15;2.60;;;25.30;99.90;;;;;;5052117;28;20091;-66
2023/07/28 10:48:53;;;;;;;3.10;2.22;;;25.20;99.90;;;;;;5052429;28;20049;-68
2023/07/28 10:51:24;;;;;;;4.93;2.75;;;25.20;99.90;;;;;;5052683;28;20053;-66
2023/07/28 10:54:02;;;;;;;3.20;2.90;;;25.40;99.90;;;;;;5051948;28;20142;-67
2023/07/28 10:56:28;;;;;;;3.85;3.20;;;25.50;99.90;;;;;;5051799;28;20426;-68
2023/07/28 10:59:01;;;;;;;2.80;2.33;;;25.90;99.90;;;;;;5052027;28;20048;-67
2023/07/28 11:01:40;;;;;;;6.68;3.50;;;26.00;99.90;;;;;;5055413;28;20045;-66
2023/07/28 11:04:15;;;;;;;4.13;2.88;;;26.10;99.90;;;;;;5055873;28;20076;-67
2023/07/28 11:06:46;;;;;;;3.38;2.70;;;26.00;99.90;;;;;;5056526;28;20041;-67
2023/07/28 11:09:14;;;;;;;4.32;2.97;;;26.00;99.90;;;;;;5038133;28;20041;-67
2023/07/28 11:11:41;;;;;;;2.72;2.42;;;26.20;99.90;;;;;;5055860;28;20132;-67
2023/07/28 11:14:08;;;;;;;3.58;2.38;;;26.30;99.90;;;;;;5056201;28;20049;-67
2023/07/28 11:16:35;;;;;;;4.45;2.70;;;25.90;99.90;;;;;;5021721;28;20053;-68
2023/07/28 11:19:10;;;;;;;2.50;2.30;;;25.80;99.90;;;;;;5055449;28;20053;-67
2023/07/28 11:21:40;;;;;;;4.53;2.47;;;25.70;99.90;;;;;;5038304;28;20048;-66
2023/07/28 11:24:10;;;;;;;3.70;2.90;;;25.90;99.90;;;;;;5055605;28;20080;-67
2023/07/28 11:26:37;;;;;;;3.20;2.60;;;26.00;99.90;;;;;;5055245;28;20049;-67
2023/07/28 11:29:04;;;;;;;4.53;2.90;;;26.30;99.90;;;;;;5038070;28;20053;-68
2023/07/28 11:31:30;;;;;;;3.53;2.95;;;26.40;99.90;;;;;;5055614;28;20124;-68
2023/07/28 11:33:55;;;;;;;3.83;2.65;;;26.60;99.90;;;;;;5038323;28;20045;-66
2023/07/28 11:36:23;;;;;;;2.90;2.55;;;26.50;99.90;;;;;;5038243;28;20060;-67
2023/07/28 11:38:50;;;;;;;6.43;2.92;;;26.40;99.90;;;;;;5055188;28;20060;-67
2023/07/28 11:41:16;;;;;;;2.40;2.20;;;26.30;99.90;;;;;;5055175;28;20062;-68
2023/07/28 11:43:46;;;;;;;3.03;2.03;;;26.20;99.90;;;;;;5055256;28;20091;-68
2023/07/28 11:46:33;;;;;;;4.00;2.38;;;26.20;99.90;;;;;;5054968;28;20056;-67
2023/07/28 11:49:21;;;;;;;2.30;2.10;;;26.20;99.90;;;;;;5055507;28;20080;-67
2023/07/28 11:51:49;;;;;;;2.90;2.67;;;26.30;99.90;;;;;;5054893;28;20049;-68
2023/07/28 11:54:19;;;;;;;3.50;2.17;;;26.30;99.90;;;;;;5036933;28;20052;-67
2023/07/28 11:56:46;;;;;;;2.92;2.70;;;26.10;99.90;;;;;;5054647;28;20056;-67
2023/07/28 11:59:15;;;;;;;4.25;2.28;;;26.10;99.90;;;;;;5054700;28;20051;-68
2023/07/28 12:02:10;;;;;;;3.17;2.22;;;26.30;99.90;;;;;;5054528;28;20124;-68
2023/07/28 12:04:38;;;;;;;2.28;2.03;;;26.30;99.90;;;;;;5037237;28;20076;-67
2023/07/28 12:07:11;;;;;;;1.92;1.80;;;26.40;99.90;;;;;;5020267;28;20049;-68
2023/07/28 12:09:46;;;;;;;5.45;2.00;;;26.40;99.90;;;;;;5054327;28;20125;-68
2023/07/28 12:12:16;;;;;;;4.60;2.55;;;26.30;99.90;;;;;;5053824;28;20458;-67
2023/07/28 12:14:42;;;;;;;3.55;1.70;;;26.30;99.90;;;;;;5054597;28;20124;-68
2023/07/28 12:17:15;;;;;;;2.22;1.90;;;26.20;99.90;;;;;;5054241;28;20099;-68
2023/07/28 12:19:43;;;;;;;3.58;2.38;;;26.40;99.90;;;;;;5053972;28;20057;-67
2023/07/28 12:22:09;;;;;;;2.97;2.38;;;26.60;99.90;;;;;;5054205;28;20132;-67
2023/07/28 12:24:34;;;;;;;2.58;2.13;;;26.70;99.90;;;;;;5054038;28;20087;-68
2023/07/28 12:27:00;;;;;;;2.67;2.20;;;26.70;99.90;;;;;;5054593;28;20049;-67
2023/07/28 12:29:26;;;;;;;1.90;1.80;;;26.70;99.90;;;;;;5054187;28;20122;-68
2023/07/28 12:31:52;;;;;;;2.20;1.67;;;26.60;99.90;;;;;;5036320;28;20088;-67
2023/07/28 12:34:18;;;;;;;2.75;1.77;;;26.80;99.90;;;;;;5054051;28;20040;-67
2023/07/28 12:36:44;;;;;;;1.98;1.70;;;26.70;99.90;;;;;;5036875;28;20461;-68
2023/07/28 12:39:10;;;;;;;2.50;1.67;;;26.60;99.90;;;;;;5036271;28;20129;-68